Time;durP1;ratioP1;P1;durP2;ratioP2;P2;SDS_P1;SDS_P2;PMS_P1;PMS_P2;Temp;Humidity;BMP_temperature;BMP_pressure;BME280_temperature;BME280_humidity;BME280_pressure;Samples;Min_cycle;Max_cycle;Signal;HPM_P1;HPM_P2
2023/06/02 00:00:38;;;;;;;;;;;;;;;11.69;61.96;96874.92;108691;1251;100721;-71
2023/06/02 00:03:32;;;;;;;;;;;;;;;11.64;62.17;96867.55;108987;1251;95505;-72
2023/06/02 00:06:00;;;;;;;;;;;;;;;11.61;62.24;96865.89;109045;1250;95609;-71
2023/06/02 00:08:31;;;;;;;;;;;;;;;11.58;62.39;96866.36;108996;1251;104044;-71
2023/06/02 00:11:00;;;;;;;;;;;;;;;11.54;62.29;96867.20;109016;1250;101421;-72
2023/06/02 00:13:28;;;;;;;;;;;;;;;11.50;62.39;96866.55;108970;1250;99887;-73
2023/06/02 00:15:56;;;;;;;;;;;;;;;11.47;62.49;96863.44;108811;1249;95707;-74
2023/06/02 00:18:24;;;;;;;;;;;;;;;11.43;62.58;96862.88;109017;1250;95630;-72
2023/06/02 00:20:53;;;;;;;;;;;;;;;11.39;62.87;96861.92;109045;1251;103717;-71
2023/06/02 00:23:21;;;;;;;;;;;;;;;11.38;62.85;96860.04;108806;1250;101433;-73
2023/06/02 00:25:49;;;;;;;;;;;;;;;11.34;62.86;96859.52;109019;1250;99796;-71
2023/06/02 00:28:17;;;;;;;;;;;;;;;11.32;62.99;96859.42;108998;1250;95506;-72
2023/06/02 00:30:45;;;;;;;;;;;;;;;11.29;63.08;96854.46;109046;1249;95625;-75
2023/06/02 00:33:13;;;;;;;;;;;;;;;11.26;63.22;96854.21;109021;1251;103835;-72
2023/06/02 00:35:41;;;;;;;;;;;;;;;11.23;63.42;96852.67;109018;1250;101061;-74
2023/06/02 00:38:09;;;;;;;;;;;;;;;11.22;63.53;96853.30;108977;1250;100211;-73
2023/06/02 00:40:37;;;;;;;;;;;;;;;11.20;63.64;96853.15;108970;1250;95568;-71
2023/06/02 00:43:04;;;;;;;;;;;;;;;11.20;63.80;96851.73;109060;1251;95613;-71
2023/06/02 00:45:33;;;;;;;;;;;;;;;11.18;64.00;96853.74;109034;1251;103629;-73
2023/06/02 00:48:02;;;;;;;;;;;;;;;11.18;64.14;96854.61;109005;1249;101364;-72
2023/06/02 00:50:31;;;;;;;;;;;;;;;11.18;64.16;96853.37;108997;1251;99847;-71
2023/06/02 00:53:00;;;;;;;;;;;;;;;11.18;64.21;96849.01;108989;1251;95723;-72
2023/06/02 00:55:28;;;;;;;;;;;;;;;11.17;64.25;96844.41;109018;1252;95643;-72
2023/06/02 00:57:58;;;;;;;;;;;;;;;11.17;64.47;96842.20;108980;1250;103741;-72
2023/06/02 01:00:27;;;;;;;;;;;;;;;11.18;64.49;96844.02;109020;1251;101042;-71
2023/06/02 01:02:57;;;;;;;;;;;;;;;11.18;64.43;96844.61;108983;1249;99960;-72
2023/06/02 01:05:25;;;;;;;;;;;;;;;11.17;64.45;96844.20;108988;1250;95622;-71
2023/06/02 01:07:58;;;;;;;;;;;;;;;11.16;64.41;96842.88;109005;1249;96567;-71
2023/06/02 01:10:27;;;;;;;;;;;;;;;11.14;64.63;96841.04;109017;1251;103121;-71
2023/06/02 01:12:55;;;;;;;;;;;;;;;11.13;64.57;96841.76;109016;1251;101221;-73
2023/06/02 01:15:23;;;;;;;;;;;;;;;11.10;64.62;96837.80;108958;1249;100177;-71
2023/06/02 01:17:52;;;;;;;;;;;;;;;11.08;64.71;96836.06;108939;1251;95853;-71
2023/06/02 01:20:21;;;;;;;;;;;;;;;11.05;64.79;96839.70;108974;1250;95578;-72
2023/06/02 01:22:57;;;;;;;;;;;;;;;11.02;64.78;96834.75;109027;1250;103580;-71
2023/06/02 01:25:27;;;;;;;;;;;;;;;10.99;64.86;96832.14;109008;1251;101389;-74
2023/06/02 01:27:58;;;;;;;;;;;;;;;10.95;64.93;96830.91;108978;1249;100099;-72
2023/06/02 01:30:26;;;;;;;;;;;;;;;10.93;64.91;96833.22;108769;1250;95622;-71
2023/06/02 01:32:57;;;;;;;;;;;;;;;10.91;64.92;96832.08;109026;1250;95572;-73
2023/06/02 01:35:27;;;;;;;;;;;;;;;10.86;64.93;96835.14;109037;1251;103521;-72
2023/06/02 01:37:57;;;;;;;;;;;;;;;10.82;64.97;96830.00;109020;1250;101443;-73
2023/06/02 01:40:25;;;;;;;;;;;;;;;10.78;65.01;96834.98;108901;1251;99838;-71
2023/06/02 01:42:54;;;;;;;;;;;;;;;10.73;65.16;96832.52;108955;1249;95505;-71
2023/06/02 01:45:22;;;;;;;;;;;;;;;10.68;65.24;96839.71;108971;1251;96506;-71
2023/06/02 01:47:50;;;;;;;;;;;;;;;10.66;65.50;96848.11;109067;1249;103681;-71
2023/06/02 01:50:18;;;;;;;;;;;;;;;10.60;65.52;96851.31;108798;1250;101467;-72
2023/06/02 01:52:46;;;;;;;;;;;;;;;10.49;65.91;96841.59;109016;1251;99724;-70
2023/06/02 01:55:14;;;;;;;;;;;;;;;10.34;66.06;96839.14;108652;1251;95693;-72
2023/06/02 01:57:42;;;;;;;;;;;;;;;10.27;66.45;96835.00;109012;1250;95602;-71
2023/06/02 02:00:10;;;;;;;;;;;;;;;10.22;66.54;96831.67;109063;1251;103393;-71
2023/06/02 02:02:38;;;;;;;;;;;;;;;10.23;66.57;96833.16;109013;1250;101245;-71
2023/06/02 02:05:06;;;;;;;;;;;;;;;10.24;66.56;96835.30;108998;1250;99915;-71
2023/06/02 02:07:35;;;;;;;;;;;;;;;10.24;66.54;96831.02;108969;1251;95511;-75
2023/06/02 02:10:03;;;;;;;;;;;;;;;10.25;66.57;96835.91;109027;1250;95726;-74
2023/06/02 02:12:32;;;;;;;;;;;;;;;10.22;66.66;96836.73;108846;1249;103559;-70
2023/06/02 02:15:00;;;;;;;;;;;;;;;10.17;66.78;96841.77;109036;1249;101090;-71
2023/06/02 02:17:28;;;;;;;;;;;;;;;10.17;66.85;96838.31;108970;1250;99989;-71
2023/06/02 02:19:56;;;;;;;;;;;;;;;10.15;66.78;96837.34;108985;1249;95562;-72
2023/06/02 02:22:24;;;;;;;;;;;;;;;10.13;66.84;96834.97;108977;1250;96581;-75
2023/06/02 02:24:52;;;;;;;;;;;;;;;10.13;66.81;96836.75;109048;1250;103563;-71
2023/06/02 02:27:20;;;;;;;;;;;;;;;10.12;66.87;96837.91;109048;1251;101541;-72
2023/06/02 02:29:48;;;;;;;;;;;;;;;10.09;66.90;96835.37;108982;1250;100011;-71
2023/06/02 02:32:16;;;;;;;;;;;;;;;10.08;66.85;96834.80;108988;1251;95900;-72
2023/06/02 02:34:45;;;;;;;;;;;;;;;10.04;66.96;96836.12;109028;1251;95645;-72
2023/06/02 02:37:14;;;;;;;;;;;;;;;9.98;67.01;96836.09;109080;1249;103039;-71
2023/06/02 02:39:41;;;;;;;;;;;;;;;9.88;67.19;96839.67;108753;1251;100872;-75
2023/06/02 02:42:09;;;;;;;;;;;;;;;9.86;67.38;96842.46;109026;1250;99863;-75
2023/06/02 02:44:37;;;;;;;;;;;;;;;9.87;67.50;96843.20;108964;1251;97044;-71
2023/06/02 02:47:05;;;;;;;;;;;;;;;9.88;67.42;96843.45;109051;1249;97101;-72
2023/06/02 02:49:33;;;;;;;;;;;;;;;9.88;67.47;96844.20;109041;1249;103482;-71
2023/06/02 02:52:02;;;;;;;;;;;;;;;9.88;67.34;96847.23;108802;1250;101377;-71
2023/06/02 02:54:30;;;;;;;;;;;;;;;9.90;67.36;96843.23;108984;1249;100160;-72
2023/06/02 02:56:58;;;;;;;;;;;;;;;9.89;67.30;96842.04;108968;1249;95602;-71
2023/06/02 02:59:27;;;;;;;;;;;;;;;9.87;67.26;96846.32;108945;1251;95743;-73
2023/06/02 03:01:55;;;;;;;;;;;;;;;9.85;67.21;96849.48;108983;1249;103082;-72
2023/06/02 03:04:24;;;;;;;;;;;;;;;9.84;67.29;96847.70;109073;1251;101927;-73
2023/06/02 03:06:53;;;;;;;;;;;;;;;9.83;67.51;96852.64;108959;1249;99923;-71
2023/06/02 03:09:21;;;;;;;;;;;;;;;9.76;67.67;96856.44;109011;1250;95808;-72
2023/06/02 03:11:48;;;;;;;;;;;;;;;9.70;67.63;96858.76;108977;1251;96229;-73
2023/06/02 03:14:16;;;;;;;;;;;;;;;9.65;67.62;96864.57;109022;1250;103656;-71
2023/06/02 03:16:45;;;;;;;;;;;;;;;9.65;67.71;96868.73;109047;1249;101474;-73
2023/06/02 03:19:13;;;;;;;;;;;;;;;9.63;67.80;96872.54;108995;1251;99992;-72
2023/06/02 03:21:42;;;;;;;;;;;;;;;9.58;67.99;96873.02;109006;1251;95615;-73
2023/06/02 03:24:14;;;;;;;;;;;;;;;9.57;68.14;96873.98;109008;1249;95659;-71
2023/06/02 03:26:43;;;;;;;;;;;;;;;9.58;68.32;96874.10;108940;1250;103702;-71
2023/06/02 03:29:11;;;;;;;;;;;;;;;9.58;68.33;96875.64;108724;1251;100886;-71
2023/06/02 03:31:40;;;;;;;;;;;;;;;9.58;68.43;96878.13;108978;1251;99761;-71
2023/06/02 03:34:08;;;;;;;;;;;;;;;9.61;68.47;96880.47;109025;1249;95655;-72
2023/06/02 03:36:36;;;;;;;;;;;;;;;9.61;68.66;96884.82;109038;1250;95666;-73
2023/06/02 03:39:06;;;;;;;;;;;;;;;9.62;68.73;96889.17;109052;1251;112019;-72
2023/06/02 03:41:35;;;;;;;;;;;;;;;9.65;68.79;96890.19;109047;1251;101315;-75
2023/06/02 03:44:03;;;;;;;;;;;;;;;9.68;68.82;96888.33;108976;1249;100641;-72
2023/06/02 03:46:31;;;;;;;;;;;;;;;9.71;68.84;96887.15;108940;1249;95803;-71
2023/06/02 03:48:59;;;;;;;;;;;;;;;9.75;68.77;96892.03;109000;1249;96484;-73
2023/06/02 03:51:27;;;;;;;;;;;;;;;9.78;68.84;96896.96;109034;1249;103589;-71
2023/06/02 03:53:55;;;;;;;;;;;;;;;9.82;68.94;96898.43;108777;1250;101274;-72
2023/06/02 03:56:23;;;;;;;;;;;;;;;9.85;69.03;96896.17;109024;1249;98860;-72
2023/06/02 03:58:51;;;;;;;;;;;;;;;9.87;69.15;96899.81;109000;1250;95838;-75
2023/06/02 04:01:20;;;;;;;;;;;;;;;9.92;69.15;96899.89;109090;1249;95621;-71
2023/06/02 04:03:48;;;;;;;;;;;;;;;9.95;69.19;96898.80;109037;1250;103512;-71
2023/06/02 04:06:16;;;;;;;;;;;;;;;9.98;69.19;96896.74;109039;1250;101752;-72
2023/06/02 04:08:45;;;;;;;;;;;;;;;10.02;69.23;96896.91;109056;1249;99650;-71
2023/06/02 04:11:13;;;;;;;;;;;;;;;10.07;69.34;96900.39;108987;1249;95518;-72
2023/06/02 04:13:41;;;;;;;;;;;;;;;10.11;69.38;96902.65;109061;1249;95599;-71
2023/06/02 04:16:08;;;;;;;;;;;;;;;10.16;69.40;96908.25;109056;1249;103657;-73
2023/06/02 04:18:38;;;;;;;;;;;;;;;10.21;69.42;96913.05;109054;1250;101163;-71
2023/06/02 04:21:06;;;;;;;;;;;;;;;10.27;69.32;96912.20;109024;1249;99597;-71
2023/06/02 04:23:34;;;;;;;;;;;;;;;10.33;69.34;96910.95;108995;1249;95762;-71
2023/06/02 04:26:02;;;;;;;;;;;;;;;10.39;69.37;96911.17;108753;1249;95926;-72
2023/06/02 04:28:30;;;;;;;;;;;;;;;10.44;69.49;96912.38;109039;1249;103033;-71
2023/06/02 04:31:00;;;;;;;;;;;;;;;10.50;69.59;96912.73;109047;1250;101453;-71
2023/06/02 04:33:28;;;;;;;;;;;;;;;10.54;69.58;96915.14;109057;1249;99787;-70
2023/06/02 04:35:56;;;;;;;;;;;;;;;10.58;69.63;96910.38;108998;1250;95539;-71
2023/06/02 04:38:24;;;;;;;;;;;;;;;10.64;69.47;96909.61;109059;1249;95667;-74
2023/06/02 04:40:52;;;;;;;;;;;;;;;10.69;69.47;96910.92;109043;1249;103485;-71
2023/06/02 04:43:20;;;;;;;;;;;;;;;10.75;69.48;96907.53;108858;1249;100346;-71
2023/06/02 04:45:47;;;;;;;;;;;;;;;10.82;69.48;96906.55;108979;1250;108370;-75
2023/06/02 04:48:15;;;;;;;;;;;;;;;10.88;69.56;96902.18;108977;1249;95627;-74
2023/06/02 04:50:43;;;;;;;;;;;;;;;10.95;69.68;96899.00;109086;1249;95616;-72
2023/06/02 04:53:13;;;;;;;;;;;;;;;11.03;69.77;96901.27;109092;1249;103026;-72
2023/06/02 04:55:41;;;;;;;;;;;;;;;11.11;69.75;96902.53;109067;1250;101036;-72
2023/06/02 04:58:09;;;;;;;;;;;;;;;11.19;69.72;96902.98;109038;1249;98846;-71
2023/06/02 05:00:37;;;;;;;;;;;;;;;11.27;69.59;96901.52;108659;1249;95730;-72
2023/06/02 05:03:04;;;;;;;;;;;;;;;11.34;69.48;96902.54;109019;1249;95567;-74
2023/06/02 05:05:32;;;;;;;;;;;;;;;11.43;69.27;96901.21;108755;1250;103477;-74
2023/06/02 05:08:00;;;;;;;;;;;;;;;11.52;68.97;96901.04;109006;1250;101103;-72
2023/06/02 05:10:28;;;;;;;;;;;;;;;11.61;68.75;96904.19;108994;1249;99892;-75
2023/06/02 05:12:56;;;;;;;;;;;;;;;11.70;68.69;96905.99;109013;1250;95835;-72
2023/06/02 05:15:24;;;;;;;;;;;;;;;11.78;68.37;96907.68;109015;1249;95674;-72
2023/06/02 05:17:53;;;;;;;;;;;;;;;11.86;68.40;96906.06;109006;1250;103586;-71
2023/06/02 05:20:21;;;;;;;;;;;;;;;11.94;68.52;96908.81;109047;1250;101541;-71
2023/06/02 05:22:49;;;;;;;;;;;;;;;12.02;68.58;96910.64;109016;1249;100405;-71
2023/06/02 05:25:17;;;;;;;;;;;;;;;12.10;68.39;96911.14;109016;1249;95631;-70
2023/06/02 05:27:45;;;;;;;;;;;;;;;12.18;68.32;96911.13;109066;1249;95724;-73
2023/06/02 05:30:14;;;;;;;;;;;;;;;12.27;68.52;96913.41;109035;1250;103532;-71
2023/06/02 05:32:42;;;;;;;;;;;;;;;12.38;68.66;96912.23;109037;1249;100360;-73
2023/06/02 05:35:10;;;;;;;;;;;;;;;12.48;68.80;96910.41;108707;1250;99516;-71
2023/06/02 05:37:37;;;;;;;;;;;;;;;12.58;68.79;96911.77;108951;1249;95506;-71
2023/06/02 05:40:06;;;;;;;;;;;;;;;12.69;68.46;96908.20;109067;1249;96469;-75
2023/06/02 05:42:33;;;;;;;;;;;;;;;12.77;68.51;96910.79;109061;1250;103496;-72
2023/06/02 05:45:05;;;;;;;;;;;;;;;12.87;68.36;96908.95;109032;1250;101359;-72
2023/06/02 05:47:33;;;;;;;;;;;;;;;12.96;68.43;96909.05;108797;1250;100085;-74
2023/06/02 05:50:01;;;;;;;;;;;;;;;13.06;68.39;96909.35;108975;1249;95563;-73
2023/06/02 05:52:29;;;;;;;;;;;;;;;13.16;68.10;96910.73;109061;1249;95656;-71
2023/06/02 05:54:57;;;;;;;;;;;;;;;13.25;67.82;96912.29;109027;1249;103601;-71
2023/06/02 05:57:25;;;;;;;;;;;;;;;13.35;67.44;96910.37;109051;1249;101246;-74
2023/06/02 05:59:52;;;;;;;;;;;;;;;13.46;67.35;96910.02;108998;1250;99820;-76
2023/06/02 06:02:20;;;;;;;;;;;;;;;13.58;67.47;96910.71;108970;1249;95809;-71
2023/06/02 06:04:48;;;;;;;;;;;;;;;13.71;67.18;96912.02;109027;1249;95587;-71
2023/06/02 06:07:16;;;;;;;;;;;;;;;13.81;66.93;96911.08;109013;1250;102332;-71
2023/06/02 06:09:44;;;;;;;;;;;;;;;13.92;66.98;96910.69;109056;1250;101034;-72
2023/06/02 06:12:12;;;;;;;;;;;;;;;14.04;66.99;96906.55;109040;1249;99982;-76
2023/06/02 06:14:40;;;;;;;;;;;;;;;14.17;66.98;96908.01;109054;1249;95585;-72
2023/06/02 06:17:08;;;;;;;;;;;;;;;14.34;67.26;96914.06;109002;1249;95627;-72
2023/06/02 06:19:36;;;;;;;;;;;;;;;14.52;67.11;96914.85;109029;1249;103375;-72
2023/06/02 06:22:04;;;;;;;;;;;;;;;14.67;66.64;96910.73;108831;1250;100649;-72
2023/06/02 06:24:32;;;;;;;;;;;;;;;14.82;66.39;96908.02;108984;1249;99897;-72
2023/06/02 06:27:00;;;;;;;;;;;;;;;14.96;66.15;96912.34;109003;1249;95522;-72
2023/06/02 06:29:28;;;;;;;;;;;;;;;15.10;66.03;96914.22;108830;1249;96083;-73
2023/06/02 06:31:55;;;;;;;;;;;;;;;15.23;65.51;96911.89;109004;1249;103329;-73
2023/06/02 06:34:23;;;;;;;;;;;;;;;15.35;65.16;96917.42;108728;1250;101913;-72
2023/06/02 06:36:52;;;;;;;;;;;;;;;15.47;64.97;96918.00;109021;1249;99606;-72
2023/06/02 06:39:20;;;;;;;;;;;;;;;15.59;64.77;96917.67;108648;1250;95720;-72
2023/06/02 06:41:48;;;;;;;;;;;;;;;15.71;64.70;96923.20;109010;1250;95601;-73
2023/06/02 06:44:16;;;;;;;;;;;;;;;15.84;64.25;96924.15;109013;1249;103735;-72
2023/06/02 06:46:44;;;;;;;;;;;;;;;15.96;64.20;96924.83;109040;1250;100031;-75
2023/06/02 06:49:12;;;;;;;;;;;;;;;16.11;63.83;96928.13;108986;1249;99862;-75
2023/06/02 06:51:40;;;;;;;;;;;;;;;16.26;63.99;96928.00;108979;1249;95514;-75
2023/06/02 06:54:07;;;;;;;;;;;;;;;16.41;63.64;96932.15;109029;1249;95572;-75
2023/06/02 06:56:37;;;;;;;;;;;;;;;16.54;63.08;96939.35;109026;1249;102166;-75
2023/06/02 06:59:05;;;;;;;;;;;;;;;16.65;62.65;96941.52;109040;1250;100089;-72
2023/06/02 07:01:32;;;;;;;;;;;;;;;16.77;62.82;96939.01;108985;1250;100088;-73
2023/06/02 07:04:00;;;;;;;;;;;;;;;16.88;61.55;96936.73;108991;1249;95835;-71
2023/06/02 07:06:28;;;;;;;;;;;;;;;16.97;60.98;96941.31;109064;1249;95724;-72
2023/06/02 07:08:56;;;;;;;;;;;;;;;17.07;60.91;96935.60;109008;1249;103039;-72
2023/06/02 07:11:25;;;;;;;;;;;;;;;17.20;60.76;96940.42;109036;1249;101319;-74
2023/06/02 07:13:53;;;;;;;;;;;;;;;17.30;59.86;96940.63;109016;1249;100035;-72
2023/06/02 07:16:21;;;;;;;;;;;;;;;17.39;59.31;96937.73;108980;1249;95571;-72
2023/06/02 07:18:49;;;;;;;;;;;;;;;17.48;59.07;96938.48;109016;1250;95705;-72
2023/06/02 07:21:17;;;;;;;;;;;;;;;17.58;58.79;96940.27;109028;1249;103426;-73
2023/06/02 07:23:45;;;;;;;;;;;;;;;17.69;58.27;96945.41;109042;1249;101400;-76
2023/06/02 07:26:13;;;;;;;;;;;;;;;17.77;58.08;96941.45;108977;1249;99793;-72
2023/06/02 07:28:41;;;;;;;;;;;;;;;17.86;58.08;96937.50;109010;1249;95604;-72
2023/06/02 07:31:08;;;;;;;;;;;;;;;17.98;57.88;96933.77;109080;1249;95650;-76
2023/06/02 07:33:37;;;;;;;;;;;;;;;18.07;57.20;96939.73;109040;1249;103172;-73
2023/06/02 07:36:04;;;;;;;;;;;;;;;18.16;56.95;96939.85;108867;1249;101932;-72
2023/06/02 07:38:32;;;;;;;;;;;;;;;18.25;56.66;96939.38;109022;1249;99469;-71
2023/06/02 07:41:00;;;;;;;;;;;;;;;18.34;56.44;96934.09;109024;1249;95540;-72
2023/06/02 07:43:28;;;;;;;;;;;;;;;18.48;56.76;96929.66;108946;1249;95649;-74
2023/06/02 07:45:56;;;;;;;;;;;;;;;18.65;56.55;96931.72;109065;1249;102185;-73
2023/06/02 07:48:24;;;;;;;;;;;;;;;18.80;55.81;96929.85;109059;1250;100579;-73
2023/06/02 07:50:52;;;;;;;;;;;;;;;18.98;54.82;96932.77;109019;1249;99895;-72
2023/06/02 07:53:20;;;;;;;;;;;;;;;19.24;54.17;96931.58;109022;1249;95562;-73
2023/06/02 07:55:48;;;;;;;;;;;;;;;19.61;53.72;96931.08;109086;1249;95631;-73
2023/06/02 07:58:16;;;;;;;;;;;;;;;20.02;53.08;96927.81;109063;1249;102585;-72
2023/06/02 08:00:44;;;;;;;;;;;;;;;20.47;52.41;96932.35;108915;1250;101338;-73
2023/06/02 08:03:12;;;;;;;;;;;;;;;20.87;51.24;96930.64;108891;1250;99720;-73
2023/06/02 08:05:40;;;;;;;;;;;;;;;21.23;49.93;96929.64;108926;1250;95573;-75
2023/06/02 08:08:08;;;;;;;;;;;;;;;21.53;49.16;96925.70;108675;1250;95638;-73
2023/06/02 08:10:35;;;;;;;;;;;;;;;21.92;48.86;96923.93;108896;1250;103272;-74
2023/06/02 08:13:03;;;;;;;;;;;;;;;22.32;48.05;96918.48;108976;1250;101306;-73
2023/06/02 08:15:31;;;;;;;;;;;;;;;22.65;47.49;96918.96;108917;1249;97750;-73
2023/06/02 08:18:00;;;;;;;;;;;;;;;22.91;46.90;96923.83;108906;1249;95831;-74
2023/06/02 08:20:28;;;;;;;;;;;;;;;23.16;46.17;96929.59;108665;1249;96605;-73
2023/06/02 08:22:57;;;;;;;;;;;;;;;23.43;45.64;96931.34;108984;1250;103355;-73
2023/06/02 08:25:25;;;;;;;;;;;;;;;23.65;44.79;96933.19;109007;1249;101991;-73
2023/06/02 08:27:52;;;;;;;;;;;;;;;23.93;44.57;96928.86;108911;1250;99812;-75
2023/06/02 08:30:20;;;;;;;;;;;;;;;24.08;44.26;96930.73;108911;1249;95943;-71
2023/06/02 08:32:49;;;;;;;;;;;;;;;24.32;44.28;96933.25;109045;1249;95773;-72
2023/06/02 08:35:18;;;;;;;;;;;;;;;24.57;43.45;96933.34;108997;1249;103491;-72
2023/06/02 08:37:46;;;;;;;;;;;;;;;24.87;43.04;96931.85;109012;1249;100993;-72
2023/06/02 08:40:16;;;;;;;;;;;;;;;25.17;42.89;96924.94;108999;1249;108469;-72
2023/06/02 08:42:44;;;;;;;;;;;;;;;25.45;42.28;96928.42;108983;1249;95563;-71
2023/06/02 08:45:12;;;;;;;;;;;;;;;25.75;41.64;96930.54;109029;1249;95588;-72
2023/06/02 08:47:43;;;;;;;;;;;;;;;25.92;41.25;96923.79;109076;1250;103083;-74
2023/06/02 08:50:11;;;;;;;;;;;;;;;26.13;40.70;96924.39;108998;1249;101489;-72
2023/06/02 08:52:42;;;;;;;;;;;;;;;26.18;40.52;96921.01;108989;1249;99887;-74
2023/06/02 08:55:10;;;;;;;;;;;;;;;25.97;40.30;96917.95;109015;1249;95780;-71
2023/06/02 08:57:38;;;;;;;;;;;;;;;25.90;40.33;96919.50;108791;1249;96200;-71
2023/06/02 09:00:07;;;;;;;;;;;;;;;26.11;40.65;96921.89;109019;1249;103592;-72
2023/06/02 09:02:35;;;;;;;;;;;;;;;26.19;39.88;96922.58;108851;1251;101333;-71
2023/06/02 09:05:03;;;;;;;;;;;;;;;26.18;39.62;96918.96;108953;1250;99803;-72
2023/06/02 09:07:32;;;;;;;;;;;;;;;26.40;39.31;96917.21;108907;1250;95815;-71
2023/06/02 09:10:00;;;;;;;;;;;;;;;26.69;39.14;96913.89;108977;1250;96527;-72
2023/06/02 09:12:28;;;;;;;;;;;;;;;27.00;38.75;96906.08;108959;1249;102588;-73
2023/06/02 09:15:10;;;;;;;;;;;;;;;27.09;38.55;96902.06;108834;1251;101331;-72
2023/06/02 09:17:38;;;;;;;;;;;;;;;27.20;38.11;96909.30;108937;1250;99989;-71
2023/06/02 09:20:09;;;;;;;;;;;;;;;27.49;37.88;96912.11;109004;1249;95571;-71
2023/06/02 09:22:52;;;;;;;;;;;;;;;27.79;37.64;96910.98;109007;1249;95721;-71
2023/06/02 09:25:21;;;;;;;;;;;;;;;27.82;36.70;96908.42;108998;1250;102420;-71
2023/06/02 09:27:53;;;;;;;;;;;;;;;27.75;37.01;96907.58;108970;1250;100282;-73
2023/06/02 09:30:21;;;;;;;;;;;;;;;27.98;37.11;96909.53;108938;1249;99980;-71
2023/06/02 09:32:55;;;;;;;;;;;;;;;27.97;36.84;96905.63;108922;1249;95586;-72
2023/06/02 09:35:33;;;;;;;;;;;;;;;27.93;36.48;96904.11;108947;1250;95767;-71
2023/06/02 09:38:02;;;;;;;;;;;;;;;27.91;35.65;96904.20;108637;1250;103573;-71
2023/06/02 09:40:30;;;;;;;;;;;;;;;27.90;35.71;96895.11;108947;1249;109079;-74
2023/06/02 09:42:58;;;;;;;;;;;;;;;27.81;36.20;96901.47;108938;1249;99835;-72
2023/06/02 09:45:26;;;;;;;;;;;;;;;27.72;36.68;96902.86;108989;1250;95556;-72
2023/06/02 09:47:54;;;;;;;;;;;;;;;27.67;36.02;96905.05;108997;1249;95756;-71
2023/06/02 09:50:38;;;;;;;;;;;;;;;27.91;35.37;96902.30;109011;1250;103092;-71
2023/06/02 09:53:11;;;;;;;;;;;;;;;28.18;35.37;96906.31;108863;1249;206264;-72
2023/06/02 09:55:39;;;;;;;;;;;;;;;28.41;35.57;96913.39;108962;1249;100158;-72
2023/06/02 09:58:08;;;;;;;;;;;;;;;28.48;34.95;96909.67;109004;1249;95893;-71
2023/06/02 10:00:36;;;;;;;;;;;;;;;28.56;34.74;96904.90;109105;1250;95486;-71
2023/06/02 10:03:06;;;;;;;;;;;;;;;28.53;34.37;96903.45;109095;1250;103668;-72
2023/06/02 10:05:38;;;;;;;;;;;;;;;28.25;34.33;96907.13;109025;1249;101018;-71
2023/06/02 10:08:06;;;;;;;;;;;;;;;27.85;34.52;96906.70;108971;1249;99842;-76
2023/06/02 10:10:53;;;;;;;;;;;;;;;27.60;34.93;96908.01;109102;1250;95532;-72
2023/06/02 10:13:21;;;;;;;;;;;;;;;27.68;35.41;96906.27;109013;1250;96502;-72
2023/06/02 10:15:58;;;;;;;;;;;;;;;27.77;35.31;96909.65;109088;1250;103503;-72
2023/06/02 10:18:29;;;;;;;;;;;;;;;27.67;35.39;96907.48;109016;1251;101412;-73
2023/06/02 10:21:00;;;;;;;;;;;;;;;27.63;35.54;96908.35;109056;1250;99863;-72
2023/06/02 10:23:47;;;;;;;;;;;;;;;27.87;35.32;96909.17;109064;1249;95575;-74
2023/06/02 10:26:18;;;;;;;;;;;;;;;28.27;35.08;96909.44;108940;1250;95724;-72
2023/06/02 10:28:46;;;;;;;;;;;;;;;28.52;34.34;96911.43;108989;1249;103308;-72
2023/06/02 10:31:14;;;;;;;;;;;;;;;28.45;33.96;96911.55;108987;1250;109909;-72
2023/06/02 10:33:45;;;;;;;;;;;;;;;28.27;33.83;96908.19;108896;1250;100233;-72
2023/06/02 10:36:17;;;;;;;;;;;;;;;27.89;34.19;96908.48;108922;1249;95619;-72
2023/06/02 10:38:46;;;;;;;;;;;;;;;27.76;34.73;96902.88;109032;1249;95628;-73
2023/06/02 10:41:16;;;;;;;;;;;;;;;27.76;34.93;96907.53;108969;1249;103525;-74
2023/06/02 10:44:03;;;;;;;;;;;;;;;27.76;35.11;96908.02;109031;1249;101311;-71
2023/06/02 10:46:31;;;;;;;;;;;;;;;27.84;34.64;96908.42;109022;1250;99950;-74
2023/06/02 10:48:59;;;;;;;;;;;;;;;28.08;34.47;96913.75;108746;1250;95651;-75
2023/06/02 10:51:47;;;;;;;;;;;;;;;28.36;34.02;96911.62;109036;1250;95631;-72
2023/06/02 10:54:15;;;;;;;;;;;;;;;28.54;34.00;96913.31;109010;1250;103412;-72
2023/06/02 10:56:44;;;;;;;;;;;;;;;28.50;34.07;96916.18;109006;1251;101604;-74
2023/06/02 10:59:31;;;;;;;;;;;;;;;28.51;33.59;96916.30;109001;1249;100180;-72
2023/06/02 11:01:59;;;;;;;;;;;;;;;28.46;33.98;96919.45;108965;1249;95501;-76
2023/06/02 11:04:28;;;;;;;;;;;;;;;28.45;34.21;96921.09;109038;1249;95639;-72
2023/06/02 11:07:15;;;;;;;;;;;;;;;28.45;33.88;96920.11;109048;1250;103727;-72
2023/06/02 11:09:44;;;;;;;;;;;;;;;27.79;33.82;96917.88;108988;1250;101288;-71
2023/06/02 11:12:12;;;;;;;;;;;;;;;26.93;34.23;96920.40;108776;1249;98524;-71
2023/06/02 11:15:00;;;;;;;;;;;;;;;26.06;34.87;96922.58;108989;1250;95584;-72
2023/06/02 11:17:31;;;;;;;;;;;;;;;25.37;35.95;96924.22;109026;1250;95704;-71
2023/06/02 11:19:59;;;;;;;;;;;;;;;24.89;36.50;96922.77;109051;1249;103668;-72
2023/06/02 11:22:27;;;;;;;;;;;;;;;24.70;37.14;96920.33;109072;1250;101307;-73
2023/06/02 11:24:56;;;;;;;;;;;;;;;24.67;37.56;96921.59;109030;1249;99940;-72
2023/06/02 11:27:44;;;;;;;;;;;;;;;24.76;37.50;96921.34;109006;1249;95783;-71
2023/06/02 11:30:17;;;;;;;;;;;;;;;24.75;37.11;96914.90;108400;1257;95825;-73
2023/06/02 11:32:48;;;;;;;;;;;;;;;24.58;37.41;96916.23;108421;1257;103421;-71
2023/06/02 11:35:17;;;;;;;;;;;;;;;24.59;37.79;96916.17;108472;1257;101318;-71
2023/06/02 11:37:45;;;;;;;;;;;;;;;24.88;37.67;96914.90;108433;1256;99441;-74
2023/06/02 11:40:14;;;;;;;;;;;;;;;25.15;37.80;96912.18;108441;1256;95852;-71
2023/06/02 11:42:43;;;;;;;;;;;;;;;25.21;38.28;96917.33;108444;1256;95680;-73
2023/06/02 11:45:22;;;;;;;;;;;;;;;25.45;37.77;96915.67;108456;1256;103420;-71
2023/06/02 11:48:00;;;;;;;;;;;;;;;25.78;37.33;96916.08;108334;1256;101647;-71
2023/06/02 11:50:30;;;;;;;;;;;;;;;26.13;37.20;96918.08;108445;1256;100232;-72
2023/06/02 11:52:58;;;;;;;;;;;;;;;26.30;37.46;96919.23;108456;1255;95999;-72
2023/06/02 11:55:28;;;;;;;;;;;;;;;26.52;36.95;96917.48;108466;1256;95785;-72
2023/06/02 11:58:14;;;;;;;;;;;;;;;26.72;36.87;96917.61;108470;1257;103087;-72
2023/06/02 12:00:42;;;;;;;;;;;;;;;26.77;36.90;96922.48;108494;1257;100022;-74
2023/06/02 12:03:12;;;;;;;;;;;;;;;26.89;36.21;96919.21;108423;1256;99929;-74
2023/06/02 12:05:43;;;;;;;;;;;;;;;27.02;36.35;96921.79;108247;1257;95748;-71
2023/06/02 12:08:20;;;;;;;;;;;;;;;27.30;35.95;96921.49;108793;1249;95708;-72
2023/06/02 12:10:49;;;;;;;;;;;;;;;27.50;35.22;96926.15;109022;1250;103609;-71
2023/06/02 12:13:43;;;;;;;;;;;;;;;27.63;34.81;96928.44;109007;1249;101340;-75
2023/06/02 12:16:19;;;;;;;;;;;;;;;27.73;34.60;96926.65;108416;1256;99930;-72
2023/06/02 12:18:47;;;;;;;;;;;;;;;27.78;34.20;96931.06;108384;1256;95618;-72
2023/06/02 12:21:41;;;;;;;;;;;;;;;27.84;34.21;96926.09;108450;1256;95709;-75
2023/06/02 12:24:10;;;;;;;;;;;;;;;27.88;34.41;96923.42;108064;1262;103504;-72
2023/06/02 12:26:42;;;;;;;;;;;;;;;27.74;34.33;96924.16;108050;1262;101416;-74
2023/06/02 12:29:10;;;;;;;;;;;;;;;27.70;34.05;96920.42;108037;1262;100083;-72
2023/06/02 12:31:38;;;;;;;;;;;;;;;27.82;33.92;96925.06;108039;1262;95707;-72
2023/06/02 12:34:07;;;;;;;;;;;;;;;27.63;33.98;96924.91;108061;1262;95824;-72
2023/06/02 12:36:37;;;;;;;;;;;;;;;27.10;34.72;96932.83;108100;1262;103553;-72
2023/06/02 12:39:05;;;;;;;;;;;;;;;27.00;34.68;96930.89;108036;1262;101522;-72
2023/06/02 12:41:33;;;;;;;;;;;;;;;27.18;34.90;96927.11;108053;1262;99810;-77
2023/06/02 12:44:01;;;;;;;;;;;;;;;27.25;34.14;96924.61;108050;1262;95589;-72